Accueil
METAR-TAF:

METAR-TAF

Aéroports :

Aéroport de Longyearbyen

Longyearbyen, Norvège

latitude: 78-15N, longitude: 015-28E, altitude: 2 m

Observation

Le bulletin a été fait il y a 52 minutes, à 18:50 UTC
Vent 15 kt de sud/sud-est
Température -4°C
Humidité 58%
Pression 1015 hPa
Visibilité 10 km ou plus
Quelques nuages à une hauteur de 3000 ft

METAR: ENSB 241850Z 15015KT 9999 FEW030 M04/M11 Q1015 RMK WIND 1400FT 12015KT

Heure: 21:42 (19:42 UTC)

Prévision

Prévision valable du 24 à 18 UTC au 25 à 18 UTC
Vent 15 kt de est/sud-est
Visibilité 10 km ou plus
Quelques nuages à une hauteur de 2000 ft
Nuages épars à une hauteur de 5000 ft
Temporairement
du 25 à 03 UTC au 25 à 18 UTC
Vent 10 kt de nord-est

TAF: ENSB 2418/2518 12015KT 9999 FEW020 SCT050 TEMPO 2503/2518 05010KT

Observations et prévisions météorologiques de plus de 4000 aéroports (messages METAR et TAF).

Les stations disponibles sont représentées par des disques jaunes et rouges sur la carte.

Passer la souris dessus pour voir le nom de la station.

Cliquer dessus pour voir les observations et prévisions météorologiques.

Pour changer de carte: cliquez sur les boutons verts avec une croix noire pour zoomer, sur le bouton vert avec un tiret pour effectuer un zoom arrière, ou sur les flèches vertes pour les cartes adjacentes.


METAR-TAF: